Time;durP1;ratioP1;P1;durP2;ratioP2;P2;SDS_P1;SDS_P2;PMS_P1;PMS_P2;Temp;Humidity;BMP_temperature;BMP_pressure;BME280_temperature;BME280_humidity;BME280_pressure;Samples;Min_cycle;Max_cycle;Signal;HPM_P1;HPM_P2
2021/12/27 00:04:15;;;;;;;6.28;4.18;;;;;;;15.72;38.65;100015.97;19673807;30;20236;-74
2021/12/27 00:14:18;;;;;;;5.43;4.30;;;;;;;15.83;38.85;100022.16;19672399;30;20141;-73
2021/12/27 00:24:20;;;;;;;4.82;4.15;;;;;;;15.29;38.61;99923.41;19672432;30;20147;-74
2021/12/27 00:34:22;;;;;;;5.20;4.30;;;;;;;15.85;38.81;100028.22;19671897;30;20450;-73
2021/12/27 00:44:23;;;;;;;6.03;4.75;;;;;;;15.33;38.71;99924.81;19671323;30;20117;-74
2021/12/27 00:54:25;;;;;;;5.57;4.50;;;;;;;15.87;39.02;99999.38;19669636;30;20056;-74
2021/12/27 01:04:27;;;;;;;5.07;4.43;;;;;;;15.29;39.09;99889.41;19669612;30;20086;-74
2021/12/27 01:14:41;;;;;;;5.78;4.70;;;;;;;15.91;39.08;99992.81;19669029;30;20053;-73
2021/12/27 01:24:43;;;;;;;5.90;4.50;;;;;;;15.93;38.87;99988.13;19696945;30;20059;-74
2021/12/27 01:34:47;;;;;;;5.22;4.00;;;;;;;15.65;39.08;99939.72;19667405;30;20114;-73
2021/12/27 01:44:49;;;;;;;5.55;4.43;;;;;;;15.88;39.09;99974.28;19667292;30;20060;-73
2021/12/27 01:54:51;;;;;;;5.03;4.53;;;;;;;15.48;38.87;99895.69;19665837;30;20534;-73
2021/12/27 02:04:53;;;;;;;5.13;4.00;;;;;;;15.33;39.13;99865.81;19665646;30;20048;-73
2021/12/27 02:14:55;;;;;;;5.97;4.25;;;;;;;14.39;39.17;99712.78;19664884;30;20068;-73
2021/12/27 02:24:57;;;;;;;5.10;3.88;;;;;;;15.93;39.26;99945.19;19665345;30;20063;-73
2021/12/27 02:34:58;;;;;;;6.40;5.10;;;;;;;15.49;39.05;99878.63;19663345;30;20056;-73
2021/12/27 02:45:00;;;;;;;5.57;4.28;;;;;;;15.93;38.94;99931.75;19663198;30;20164;-73
2021/12/27 02:55:02;;;;;;;6.60;5.32;;;;;;;15.30;38.92;99823.19;19660290;30;20094;-74
2021/12/27 03:05:05;;;;;;;5.50;4.68;;;;;;;15.95;39.03;99916.34;19663190;30;20075;-73
2021/12/27 03:15:08;;;;;;;7.85;5.22;;;;;;;15.48;39.09;99839.38;19668403;30;20056;-74
2021/12/27 03:25:13;;;;;;;6.18;5.10;;;;;;;15.75;39.19;99880.66;19676661;30;20529;-74
2021/12/27 03:35:18;;;;;;;5.10;4.17;;;;;;;15.92;39.01;99889.81;19675718;30;20094;-73
2021/12/27 03:45:28;;;;;;;5.70;4.73;;;;;;;15.92;39.51;99881.75;19675229;30;20118;-73
2021/12/27 03:55:31;;;;;;;5.57;4.43;;;;;;;15.96;39.38;99893.88;19674915;30;20064;-74
2021/12/27 04:05:33;;;;;;;6.10;4.82;;;;;;;16.01;39.20;99886.22;19673620;30;20090;-74
2021/12/27 04:15:35;;;;;;;5.47;4.93;;;;;;;16.02;39.18;99887.91;19672950;30;20063;-75
2021/12/27 04:25:38;;;;;;;6.82;5.10;;;;;;;15.87;39.07;99851.78;19699981;30;20498;-74
2021/12/27 04:35:40;;;;;;;5.78;5.15;;;;;;;15.93;39.09;99841.31;19671654;30;20063;-74
2021/12/27 04:45:44;;;;;;;4.78;4.10;;;;;;;15.51;39.50;99750.56;19671042;30;20060;-74
2021/12/27 04:55:46;;;;;;;5.47;4.47;;;;;;;15.40;39.07;99730.13;19669167;30;20074;-73
2021/12/27 05:05:48;;;;;;;5.47;4.43;;;;;;;15.91;39.03;99826.38;19668732;30;20060;-74
2021/12/27 05:15:49;;;;;;;6.07;5.10;;;;;;;15.46;39.36;99726.03;19669993;30;20060;-73
2021/12/27 05:25:51;;;;;;;7.22;5.47;;;;;;;15.34;39.06;99695.88;19666909;30;20071;-74
2021/12/27 05:35:53;;;;;;;6.05;5.32;;;;;;;16.02;39.20;99790.41;19667408;30;20099;-73
2021/12/27 05:45:55;;;;;;;6.53;5.38;;;;;;;16.05;39.01;99788.28;19666498;30;20481;-73
2021/12/27 05:55:57;;;;;;;4.82;4.00;;;;;;;15.57;39.48;99712.41;19666122;30;20559;-74
2021/12/27 06:05:59;;;;;;;6.78;5.05;;;;;;;15.88;39.45;99772.97;19665470;30;20075;-74
2021/12/27 06:16:01;;;;;;;7.78;5.03;;;;;;;15.36;39.96;99661.69;19665106;30;20071;-74
2021/12/27 06:26:03;;;;;;;7.18;5.60;;;;;;;15.45;39.59;99666.16;19664147;30;20070;-73
2021/12/27 06:36:07;;;;;;;6.28;4.95;;;;;;;15.93;39.66;99743.88;19663337;30;20059;-73
2021/12/27 06:46:09;;;;;;;10.07;5.18;;;;;;;16.08;40.66;99769.19;19662785;30;20126;-75
2021/12/27 06:56:11;;;;;;;9.52;5.13;;;;;;;15.49;40.87;99664.88;19662665;30;20395;-79
2021/12/27 07:06:13;;;;;;;6.57;4.50;;;;;;;16.08;40.96;99763.81;19660786;30;20052;-80
2021/12/27 07:16:15;;;;;;;9.15;4.88;;;;;;;15.87;41.46;99749.78;19661637;30;20147;-73
2021/12/27 07:26:17;;;;;;;8.32;6.00;;;;;;;16.11;41.81;99751.09;19661328;30;20126;-76
2021/12/27 07:36:18;;;;;;;9.50;5.00;;;;;;;16.11;41.94;99748.41;19659906;30;20066;-76
2021/12/27 07:46:20;;;;;;;8.77;5.75;;;;;;;16.00;41.87;99744.94;19660926;30;20539;-77
2021/12/27 07:56:22;;;;;;;8.63;5.10;;;;;;;16.05;42.46;99747.16;19660616;30;20067;-78
2021/12/27 08:06:24;;;;;;;8.57;5.00;;;;;;;15.36;42.28;99650.97;19672075;30;20060;-74
2021/12/27 08:16:27;;;;;;;9.27;4.72;;;;;;;15.38;42.61;99665.06;19672989;30;20056;-74
2021/12/27 08:26:29;;;;;;;23.58;5.75;;;;;;;15.85;42.95;99733.84;19671301;30;20067;-77
2021/12/27 08:36:33;;;;;;;7.72;5.32;;;;;;;15.27;43.06;99639.34;19671997;30;20067;-76
2021/12/27 08:46:35;;;;;;;9.02;5.45;;;;;;;15.41;43.26;99654.03;19671258;30;20147;-85
2021/12/27 08:56:38;;;;;;;9.80;5.63;;;;;;;15.94;43.66;99750.94;19670396;30;20056;-73
2021/12/27 09:06:40;;;;;;;14.90;6.25;;;;;;;15.41;43.44;99659.41;19668752;30;20063;-73
2021/12/27 09:16:43;;;;;;;9.55;5.22;;;;;;;15.48;43.74;99671.25;19668420;30;20056;-73
2021/12/27 09:26:46;;;;;;;8.95;5.72;;;;;;;16.01;43.45;99751.16;19668501;30;20114;-73
2021/12/27 09:36:47;;;;;;;10.48;6.30;;;;;;;16.00;43.21;99739.56;19667487;30;20048;-74
2021/12/27 09:46:49;;;;;;;11.27;6.00;;;;;;;15.39;42.90;99634.59;19663670;30;20056;-74
2021/12/27 09:56:54;;;;;;;11.25;6.45;;;;;;;15.45;43.05;99630.47;19666473;30;20557;-74
2021/12/27 10:06:56;;;;;;;10.85;6.10;;;;;;;15.81;43.10;99682.31;19664273;30;20536;-74
2021/12/27 10:17:10;;;;;;;11.50;6.90;;;;;;;15.96;42.54;99697.94;19664799;30;20411;-74
2021/12/27 10:27:12;;;;;;;12.65;6.13;;;;;;;15.41;42.86;99581.63;19691832;30;20064;-74
2021/12/27 10:37:29;;;;;;;10.93;6.68;;;;;;;16.07;42.85;99683.41;19663563;30;20110;-74
2021/12/27 10:47:38;;;;;;;12.52;6.50;;;;;;;16.08;42.50;99667.16;19663872;30;20072;-74
2021/12/27 10:57:40;;;;;;;12.07;6.45;;;;;;;15.92;42.48;99641.00;19662641;30;20514;-74
2021/12/27 11:07:43;;;;;;;11.23;6.68;;;;;;;16.04;42.71;99649.69;19690366;30;20503;-74
2021/12/27 11:17:46;;;;;;;12.98;6.47;;;;;;;15.91;42.48;99622.41;19660342;30;20181;-74
2021/12/27 11:27:48;;;;;;;10.75;6.35;;;;;;;15.69;42.60;99595.00;19661308;30;20056;-75
2021/12/27 11:37:56;;;;;;;11.57;5.63;;;;;;;16.14;42.85;99667.53;19669845;30;20121;-73
2021/12/27 11:48:11;;;;;;;9.23;6.20;;;;;;;16.08;42.94;99661.78;19675158;30;20408;-71
2021/12/27 11:58:29;;;;;;;12.27;6.47;;;;;;;16.08;43.21;99669.84;19674506;30;20117;-73
2021/12/27 12:08:50;;;;;;;13.88;7.28;;;;;;;15.97;43.82;99611.03;19687731;30;20060;-72
2021/12/27 12:18:52;;;;;;;14.00;7.88;;;;;;;16.11;44.03;99612.28;19673100;30;20151;-72
2021/12/27 12:29:03;;;;;;;14.35;6.75;;;;;;;16.06;44.21;99582.41;19672435;30;20510;-72
2021/12/27 12:39:05;;;;;;;14.63;8.18;;;;;;;15.81;44.42;99526.66;19670377;30;20060;-72
2021/12/27 12:49:19;;;;;;;21.55;8.45;;;;;;;16.17;44.40;99562.50;19670325;30;20458;-73
2021/12/27 12:59:33;;;;;;;14.93;7.80;;;;;;;16.20;44.44;99570.25;19670160;30;20065;-73
2021/12/27 13:09:53;;;;;;;16.10;8.18;;;;;;;16.04;44.15;99531.56;19682918;30;20582;-74
2021/12/27 13:20:02;;;;;;;15.93;7.65;;;;;;;16.22;44.46;99592.41;19669334;30;20060;-80
2021/12/27 13:30:14;;;;;;;14.40;7.68;;;;;;;15.67;44.40;99470.88;19668347;30;20056;-80
2021/12/27 13:40:17;;;;;;;16.67;7.85;;;;;;;16.21;44.07;99550.44;19667340;30;20056;-76
2021/12/27 13:50:27;;;;;;;14.52;7.47;;;;;;;15.68;43.96;99460.97;19665236;30;20407;-76
2021/12/27 14:00:30;;;;;;;11.68;6.18;;;;;;;15.90;44.25;99465.00;19666147;30;20060;-76
2021/12/27 14:10:32;;;;;;;14.23;6.65;;;;;;;16.23;44.26;99516.22;19664010;30;20052;-76
2021/12/27 14:20:34;;;;;;;10.30;6.55;;;;;;;15.83;43.83;99474.66;19664920;30;20056;-76
2021/12/27 14:30:44;;;;;;;13.23;7.32;;;;;;;15.59;44.18;99454.75;19692343;30;20098;-76
2021/12/27 14:40:49;;;;;;;13.18;7.10;;;;;;;16.24;43.92;99547.44;19663359;30;20091;-76
2021/12/27 14:50:51;;;;;;;9.33;5.90;;;;;;;16.22;43.85;99547.63;19661951;30;20070;-77
2021/12/27 15:00:56;;;;;;;9.82;6.18;;;;;;;15.72;43.84;99459.69;19662682;30;20052;-76
2021/12/27 15:10:58;;;;;;;11.75;6.18;;;;;;;16.27;43.74;99571.28;19660458;30;20072;-77
2021/12/27 15:21:00;;;;;;;8.88;5.68;;;;;;;16.09;43.86;99526.56;19660270;30;20062;-76
2021/12/27 15:31:03;;;;;;;10.40;5.90;;;;;;;16.18;43.74;99518.53;19661471;30;20056;-76
2021/12/27 15:41:05;;;;;;;8.27;4.95;;;;;;;16.24;43.70;99517.91;19660943;30;20562;-75
2021/12/27 15:51:08;;;;;;;9.00;5.40;;;;;;;16.28;43.64;99511.22;19658708;30;20455;-76
2021/12/27 16:01:10;;;;;;;9.52;5.47;;;;;;;16.12;43.76;99495.84;19659307;30;20060;-76
2021/12/27 16:11:13;;;;;;;6.65;4.53;;;;;;;15.70;43.75;99410.72;19688204;30;20056;-75
2021/12/27 16:21:15;;;;;;;8.60;4.82;;;;;;;15.18;43.42;99322.03;19663098;30;20060;-75
2021/12/27 16:31:17;;;;;;;8.27;5.63;;;;;;;16.31;43.57;99510.88;19672457;30;20063;-75
2021/12/27 16:41:19;;;;;;;7.32;5.05;;;;;;;15.73;43.60;99402.34;19670463;30;20056;-74
2021/12/27 16:51:21;;;;;;;7.10;4.70;;;;;;;15.73;43.87;99400.50;19671074;30;20068;-74
2021/12/27 17:01:23;;;;;;;8.20;5.50;;;;;;;15.81;43.70;99397.84;19669258;30;20455;-74
2021/12/27 17:11:25;;;;;;;8.15;5.00;;;;;;;15.65;43.68;99362.91;19669718;30;20060;-73
2021/12/27 17:21:26;;;;;;;7.47;5.03;;;;;;;16.36;43.65;99475.50;19669360;30;20052;-74
2021/12/27 17:31:28;;;;;;;7.82;5.07;;;;;;;16.38;43.81;99450.19;19667656;30;20075;-74
2021/12/27 17:41:31;;;;;;;5.88;4.03;;;;;;;15.80;43.62;99360.47;19667534;30;20056;-74
2021/12/27 17:51:32;;;;;;;6.82;4.32;;;;;;;16.38;43.83;99439.44;19664639;30;20068;-74
2021/12/27 18:01:36;;;;;;;6.00;4.07;;;;;;;15.60;43.85;99308.88;19664802;30;20070;-74
2021/12/27 18:11:41;;;;;;;5.15;4.22;;;;;;;16.40;43.63;99438.44;19665662;30;20064;-74
2021/12/27 18:21:43;;;;;;;5.25;3.85;;;;;;;15.81;43.94;99335.31;19692464;30;20056;-74
2021/12/27 18:31:46;;;;;;;4.30;3.38;;;;;;;16.35;43.89;99425.47;19664189;30;20059;-74
2021/12/27 18:41:48;;;;;;;4.55;3.80;;;;;;;16.40;43.44;99422.31;19661747;30;20060;-74
2021/12/27 18:51:52;;;;;;;6.05;4.00;;;;;;;15.24;43.80;99224.03;19674200;30;20074;-74
2021/12/27 19:01:54;;;;;;;4.97;4.00;;;;;;;15.64;44.06;99289.59;19662488;30;20060;-74
2021/12/27 19:11:57;;;;;;;4.10;3.25;;;;;;;16.12;43.95;99377.72;19661947;30;20070;-74
2021/12/27 19:21:59;;;;;;;4.10;3.30;;;;;;;15.80;43.75;99304.09;19660969;30;20052;-73
2021/12/27 19:32:02;;;;;;;4.63;3.45;;;;;;;16.26;43.79;99378.94;19661566;30;20060;-73
2021/12/27 19:42:05;;;;;;;4.18;3.40;;;;;;;16.30;44.01;99391.03;19660840;30;20079;-75
2021/12/27 19:52:07;;;;;;;3.90;3.38;;;;;;;15.84;44.18;99321.56;19688522;30;20461;-75
2021/12/27 20:02:09;;;;;;;4.07;3.30;;;;;;;16.09;44.16;99386.97;19672072;30;20060;-75
2021/12/27 20:12:12;;;;;;;4.63;3.72;;;;;;;15.77;44.29;99334.78;19672745;30;20106;-75
2021/12/27 20:22:15;;;;;;;3.00;2.65;;;;;;;15.92;44.50;99355.69;19673098;30;20060;-74
2021/12/27 20:32:17;;;;;;;3.72;2.80;;;;;;;15.17;44.73;99252.50;19672416;30;20064;-75
2021/12/27 20:42:20;;;;;;;3.08;2.47;;;;;;;15.69;44.77;99312.44;19671457;30;20051;-74
2021/12/27 20:52:21;;;;;;;2.97;2.63;;;;;;;15.85;44.55;99333.13;19670106;30;20590;-74
2021/12/27 21:02:23;;;;;;;3.63;2.55;;;;;;;15.87;44.69;99328.44;19670147;30;20114;-74
2021/12/27 21:12:25;;;;;;;2.83;2.38;;;;;;;15.85;44.95;99323.25;19668540;30;20071;-74
2021/12/27 21:22:27;;;;;;;3.25;2.42;;;;;;;15.84;45.22;99309.97;19667750;30;20064;-74
2021/12/27 21:32:29;;;;;;;3.20;2.60;;;;;;;14.75;45.26;99125.50;19666982;30;20056;-74
2021/12/27 21:42:30;;;;;;;3.03;2.20;;;;;;;15.73;45.25;99282.44;19667351;30;20462;-74
2021/12/27 21:52:32;;;;;;;2.80;2.35;;;;;;;15.18;45.34;99179.13;19666542;30;20067;-74
2021/12/27 22:02:34;;;;;;;3.78;2.40;;;;;;;15.27;45.00;99182.69;19666188;30;20048;-74
2021/12/27 22:12:37;;;;;;;3.20;2.53;;;;;;;15.87;45.29;99283.66;19664413;30;20594;-74
2021/12/27 22:22:39;;;;;;;2.88;2.45;;;;;;;15.82;45.27;99277.94;19693056;30;20616;-75
2021/12/27 22:32:44;;;;;;;2.83;2.20;;;;;;;15.47;45.42;99212.75;19692683;30;20454;-75
2021/12/27 22:42:47;;;;;;;2.38;2.00;;;;;;;15.87;45.19;99270.25;19663780;30;20067;-74
2021/12/27 22:52:53;;;;;;;2.20;1.90;;;;;;;14.78;45.23;99066.25;19661218;30;20044;-74
2021/12/27 23:02:55;;;;;;;2.38;1.95;;;;;;;15.92;45.28;99242.97;19662138;30;20060;-74
2021/12/27 23:12:58;;;;;;;2.10;1.90;;;;;;;15.22;45.86;99114.31;19660474;30;20076;-74
2021/12/27 23:23:00;;;;;;;1.92;1.73;;;;;;;15.89;45.52;99211.91;19660178;30;20162;-74
2021/12/27 23:33:24;;;;;;;2.28;2.08;;;;;;;15.37;45.56;99100.25;19668120;30;20063;-77
2021/12/27 23:43:27;;;;;;;2.00;1.80;;;;;;;15.31;45.77;99079.47;19700116;30;20551;-77
2021/12/27 23:53:33;;;;;;;3.33;2.30;;;;;;;15.94;45.78;99172.00;19674524;30;20434;-76
